Time;durP1;ratioP1;P1;durP2;ratioP2;P2;SDS_P1;SDS_P2;PMS_P1;PMS_P2;Temp;Humidity;BMP_temperature;BMP_pressure;BME280_temperature;BME280_humidity;BME280_pressure;Samples;Min_cycle;Max_cycle;Signal;HPM_P1;HPM_P2
2021/12/30 00:02:05;;;;;;;98.50;85.40;;;;;;;1.99;86.37;97485.83;106349;1323;22290;-59
2021/12/30 00:04:34;;;;;;;123.00;95.70;;;;;;;2.03;86.22;97484.74;106265;1323;22245;-60
2021/12/30 00:07:09;;;;;;;115.70;92.00;;;;;;;2.03;86.11;97488.84;106321;1323;22540;-60
2021/12/30 00:09:40;;;;;;;120.60;97.70;;;;;;;2.01;86.24;97490.20;106233;1323;22461;-59
2021/12/30 00:12:09;;;;;;;123.10;97.30;;;;;;;1.99;86.24;97496.13;106309;1323;22496;-57
2021/12/30 00:14:41;;;;;;;112.30;90.90;;;;;;;1.97;86.34;97497.13;106330;1323;22477;-58
2021/12/30 00:17:10;;;;;;;100.80;83.00;;;;;;;1.98;86.08;97499.59;106340;1323;22576;-58
2021/12/30 00:19:38;;;;;;;98.90;87.30;;;;;;;1.96;85.78;97504.93;106318;1323;22585;-58
2021/12/30 00:22:06;;;;;;;102.00;85.20;;;;;;;1.93;85.93;97513.94;106298;1323;22565;-59
2021/12/30 00:24:34;;;;;;;108.30;89.20;;;;;;;1.93;85.85;97520.36;106334;1323;22462;-58
2021/12/30 00:27:03;;;;;;;116.40;91.40;;;;;;;1.90;85.93;97515.66;106364;1323;23307;-58
2021/12/30 00:29:31;;;;;;;118.60;90.10;;;;;;;1.86;86.03;97517.52;106366;1322;22437;-59
2021/12/30 00:32:08;;;;;;;102.60;84.80;;;;;;;1.86;86.29;97521.89;106323;1319;22376;-59
2021/12/30 00:34:36;;;;;;;98.70;82.00;;;;;;;1.87;86.24;97522.43;106319;1323;22456;-59
2021/12/30 00:37:04;;;;;;;108.00;81.30;;;;;;;1.88;85.97;97522.54;106314;1323;22417;-59
2021/12/30 00:39:32;;;;;;;106.60;83.90;;;;;;;1.92;86.06;97524.98;106355;1323;22210;-59
2021/12/30 00:42:00;;;;;;;97.20;81.50;;;;;;;1.94;86.10;97523.63;106344;1323;22404;-59
2021/12/30 00:44:29;;;;;;;112.90;88.70;;;;;;;1.95;86.26;97524.33;106322;1323;22418;-59
2021/12/30 00:46:59;;;;;;;107.20;84.10;;;;;;;1.93;86.06;97525.41;106330;1323;22420;-58
2021/12/30 00:49:27;;;;;;;110.50;81.30;;;;;;;1.90;86.11;97525.45;106283;1322;22527;-59
2021/12/30 00:51:56;;;;;;;85.80;74.00;;;;;;;1.90;86.23;97527.56;106225;1323;138752;-54
2021/12/30 00:54:24;;;;;;;89.20;76.20;;;;;;;1.93;86.64;97532.21;106339;1323;22558;-59
2021/12/30 00:56:52;;;;;;;110.20;83.80;;;;;;;2.01;86.53;97541.53;106331;1323;22490;-59
2021/12/30 00:59:20;;;;;;;114.40;85.90;;;;;;;1.98;86.46;97539.81;106319;1318;23361;-59
2021/12/30 01:01:48;;;;;;;128.20;90.40;;;;;;;2.02;86.33;97542.72;106302;1323;22481;-59
2021/12/30 01:04:18;;;;;;;120.80;90.70;;;;;;;2.03;86.20;97541.08;106326;1323;22446;-59
2021/12/30 01:06:46;;;;;;;122.20;85.20;;;;;;;2.03;86.47;97541.40;106304;1323;23052;-60
2021/12/30 01:09:14;;;;;;;103.40;80.50;;;;;;;2.03;86.31;97544.11;106300;1323;22407;-59
2021/12/30 01:11:43;;;;;;;91.80;79.40;;;;;;;2.09;86.49;97543.73;106317;1323;22415;-58
2021/12/30 01:14:20;;;;;;;96.80;82.70;;;;;;;2.16;86.35;97533.95;106335;1323;22587;-59
2021/12/30 01:16:53;;;;;;;108.40;86.10;;;;;;;2.17;86.22;97524.92;106353;1323;22457;-59
2021/12/30 01:21:53;;;;;;;123.90;94.20;;;;;;;2.14;86.26;97515.16;106331;1323;22509;-59
2021/12/30 01:24:25;;;;;;;101.90;82.40;;;;;;;2.11;86.01;97515.79;106231;1323;138131;-59
2021/12/30 01:26:54;;;;;;;124.60;92.50;;;;;;;2.06;85.99;97522.77;106330;1322;22520;-58
2021/12/30 01:29:22;;;;;;;110.40;88.10;;;;;;;2.06;86.06;97530.05;106323;1323;22578;-58
2021/12/30 01:31:50;;;;;;;106.40;89.30;;;;;;;2.05;86.00;97536.16;106327;1323;22553;-58
2021/12/30 01:34:21;;;;;;;115.90;94.10;;;;;;;2.07;86.21;97534.42;106286;1322;22617;-60
2021/12/30 01:36:50;;;;;;;121.80;97.20;;;;;;;2.05;85.96;97536.80;106397;1320;23364;-59
2021/12/30 01:39:20;;;;;;;132.90;92.80;;;;;;;1.95;85.30;97544.67;106408;1322;22497;-59
2021/12/30 01:41:50;;;;;;;131.90;94.50;;;;;;;1.81;85.37;97551.44;106350;1322;23801;-59
2021/12/30 01:44:22;;;;;;;123.80;92.40;;;;;;;1.71;85.40;97551.65;106279;1322;22956;-60
2021/12/30 01:46:51;;;;;;;120.70;90.90;;;;;;;1.66;85.54;97546.73;106379;1322;22419;-59
2021/12/30 01:49:21;;;;;;;120.80;91.60;;;;;;;1.63;86.05;97545.10;106355;1322;22492;-59
2021/12/30 01:51:52;;;;;;;126.30;95.80;;;;;;;1.64;86.11;97541.96;105961;1322;468123;-59
2021/12/30 01:54:22;;;;;;;133.20;95.00;;;;;;;1.64;86.29;97539.69;106294;1316;138393;-59
2021/12/30 01:56:52;;;;;;;112.50;89.00;;;;;;;1.66;86.24;97534.35;106294;1322;23214;-59
2021/12/30 01:59:23;;;;;;;109.10;87.10;;;;;;;1.69;85.85;97535.98;106363;1316;23278;-59
2021/12/30 02:01:56;;;;;;;107.80;88.20;;;;;;;1.70;86.00;97530.67;106368;1322;22594;-58
2021/12/30 02:04:33;;;;;;;96.50;85.50;;;;;;;1.73;86.08;97530.20;106354;1321;22420;-59
2021/12/30 02:07:01;;;;;;;97.80;87.00;;;;;;;1.75;86.45;97531.45;106315;1316;22591;-59
2021/12/30 02:09:30;;;;;;;98.20;83.30;;;;;;;1.72;86.06;97523.83;106359;1316;22496;-60
2021/12/30 02:12:42;;;;;;;79.20;70.80;;;;;;;1.78;86.30;97524.21;102197;1345;545251;-60
2021/12/30 02:15:12;;;;;;;80.70;72.20;;;;;;;1.85;86.47;97520.72;104045;1341;22662;-59
2021/12/30 02:17:41;;;;;;;88.70;76.00;;;;;;;1.93;86.40;97530.47;104066;1329;22533;-59
2021/12/30 02:20:33;;;;;;;103.30;79.90;;;;;;;2.00;86.12;97533.19;104082;1329;22546;-59
2021/12/30 02:23:01;;;;;;;112.50;89.30;;;;;;;1.98;85.92;97538.80;104054;1340;22584;-59
2021/12/30 02:25:30;;;;;;;106.90;87.50;;;;;;;1.89;85.65;97538.61;103781;1341;137720;-60
2021/12/30 02:27:58;;;;;;;142.30;116.70;;;;;;;1.84;85.97;97537.50;104028;1341;22581;-59
2021/12/30 02:30:26;;;;;;;109.40;82.70;;;;;;;1.85;86.16;97539.20;104016;1341;22552;-60
2021/12/30 02:32:54;;;;;;;110.60;85.20;;;;;;;1.86;86.02;97534.86;103991;1331;22544;-58
2021/12/30 02:35:22;;;;;;;90.90;80.90;;;;;;;1.88;85.92;97538.21;104041;1341;22485;-60
2021/12/30 02:37:50;;;;;;;90.90;81.00;;;;;;;1.86;85.72;97539.05;104035;1341;22529;-59
2021/12/30 02:40:27;;;;;;;98.80;87.90;;;;;;;1.85;86.11;97539.30;104013;1341;22589;-60
2021/12/30 02:42:56;;;;;;;94.70;84.40;;;;;;;1.85;86.07;97537.30;103975;1332;22570;-60
2021/12/30 02:45:24;;;;;;;87.90;78.10;;;;;;;1.79;86.05;97538.88;104023;1341;22598;-59
2021/12/30 02:47:52;;;;;;;83.90;74.90;;;;;;;1.78;86.13;97538.45;104033;1336;22607;-60
2021/12/30 02:50:21;;;;;;;84.20;75.30;;;;;;;1.81;86.04;97536.88;104021;1340;22979;-59
2021/12/30 02:52:49;;;;;;;101.00;86.30;;;;;;;1.82;85.93;97537.38;104024;1332;22553;-59
2021/12/30 02:55:17;;;;;;;108.20;86.90;;;;;;;1.78;85.88;97538.45;103935;1341;136986;-60
2021/12/30 02:57:46;;;;;;;115.00;93.30;;;;;;;1.73;85.93;97539.09;103983;1332;22581;-63
2021/12/30 03:00:15;;;;;;;180.80;128.90;;;;;;;1.67;86.03;97536.16;104029;1341;22603;-59
2021/12/30 03:02:43;;;;;;;93.10;83.00;;;;;;;1.62;86.01;97536.27;104031;1330;22523;-59
2021/12/30 03:05:15;;;;;;;87.80;78.50;;;;;;;1.58;86.28;97539.10;104029;1341;22397;-60
2021/12/30 03:07:44;;;;;;;81.50;73.40;;;;;;;1.62;86.18;97538.70;104053;1341;23239;-60
2021/12/30 03:10:19;;;;;;;86.40;77.20;;;;;;;1.65;86.30;97544.01;104022;1341;22528;-58
2021/12/30 03:12:55;;;;;;;93.40;81.20;;;;;;;1.65;86.02;97544.16;104039;1341;22509;-59
2021/12/30 03:15:27;;;;;;;93.60;83.40;;;;;;;1.63;86.32;97544.45;104052;1341;23171;-59
2021/12/30 03:17:55;;;;;;;77.30;69.50;;;;;;;1.61;86.32;97552.02;104031;1341;22532;-59
2021/12/30 03:20:23;;;;;;;139.30;100.70;;;;;;;1.57;86.26;97557.88;104047;1341;23151;-59
2021/12/30 03:22:50;;;;;;;78.30;70.30;;;;;;;1.57;86.30;97561.34;104035;1341;22548;-59
2021/12/30 03:25:18;;;;;;;78.00;69.80;;;;;;;1.59;86.23;97560.39;104035;1341;22590;-59
2021/12/30 03:27:46;;;;;;;88.70;78.30;;;;;;;1.59;86.47;97560.62;104220;1334;22533;-60
2021/12/30 03:30:16;;;;;;;98.30;87.50;;;;;;;1.62;86.61;97560.75;104234;1334;22467;-59
2021/12/30 03:32:45;;;;;;;94.70;83.80;;;;;;;1.66;86.74;97564.40;104234;1330;22499;-59
2021/12/30 03:35:14;;;;;;;83.20;74.40;;;;;;;1.68;86.36;97574.20;104195;1323;22447;-60
2021/12/30 03:37:43;;;;;;;81.40;73.00;;;;;;;1.67;86.18;97580.45;104208;1333;22405;-59
2021/12/30 03:40:15;;;;;;;88.70;80.00;;;;;;;1.66;86.25;97585.07;104252;1334;23058;-59
2021/12/30 03:42:44;;;;;;;96.40;86.20;;;;;;;1.67;86.58;97587.58;104259;1334;23253;-60
2021/12/30 03:45:13;;;;;;;96.70;86.30;;;;;;;1.70;86.78;97588.41;104269;1335;23102;-60
2021/12/30 03:47:45;;;;;;;84.80;75.60;;;;;;;1.76;86.80;97582.89;104346;1322;22497;-60
2021/12/30 03:50:21;;;;;;;83.20;73.80;;;;;;;1.82;86.70;97590.83;104231;1335;22570;-60
2021/12/30 03:52:53;;;;;;;77.80;70.00;;;;;;;1.83;86.28;97598.00;104260;1334;22460;-58
2021/12/30 03:55:22;;;;;;;74.40;66.90;;;;;;;1.81;86.26;97602.50;104223;1335;22508;-60
2021/12/30 03:57:51;;;;;;;85.40;75.80;;;;;;;1.81;86.25;97604.14;104299;1333;22631;-60
2021/12/30 04:00:21;;;;;;;139.40;109.10;;;;;;;1.76;86.05;97604.68;104226;1334;23098;-60
2021/12/30 04:02:50;;;;;;;125.20;102.90;;;;;;;1.70;86.32;97605.52;104210;1323;23069;-60
2021/12/30 04:05:19;;;;;;;84.80;76.30;;;;;;;1.63;86.20;97600.05;104265;1330;22503;-59
2021/12/30 04:07:47;;;;;;;77.40;69.70;;;;;;;1.59;86.42;97599.66;104249;1322;22512;-60
2021/12/30 04:10:17;;;;;;;78.40;69.60;;;;;;;1.62;86.49;97604.63;104282;1334;22515;-60
2021/12/30 04:12:45;;;;;;;85.00;76.10;;;;;;;1.68;86.65;97606.55;104278;1324;22493;-60
2021/12/30 04:15:13;;;;;;;84.80;76.40;;;;;;;1.76;86.93;97606.27;104279;1334;22493;-58
2021/12/30 04:17:43;;;;;;;85.10;76.40;;;;;;;1.82;87.02;97597.05;104255;1334;22566;-59
2021/12/30 04:20:13;;;;;;;91.70;81.60;;;;;;;1.83;86.62;97612.19;104240;1334;22564;-58
2021/12/30 04:22:42;;;;;;;85.20;76.40;;;;;;;1.75;86.20;97619.27;104265;1334;22669;-59
2021/12/30 04:25:13;;;;;;;92.00;82.60;;;;;;;1.70;86.33;97617.26;104254;1334;22478;-59
2021/12/30 04:27:41;;;;;;;80.20;72.20;;;;;;;1.69;86.52;97621.97;104268;1334;23047;-59
2021/12/30 04:30:11;;;;;;;79.50;71.80;;;;;;;1.73;86.42;97629.02;104243;1334;22530;-59
2021/12/30 04:32:39;;;;;;;90.00;80.40;;;;;;;1.69;86.28;97629.04;104238;1334;22531;-58
2021/12/30 04:35:08;;;;;;;91.30;81.80;;;;;;;1.63;86.33;97633.42;104234;1334;22480;-59
2021/12/30 04:37:37;;;;;;;86.90;74.40;;;;;;;1.60;86.43;97635.55;104250;1322;22417;-59
2021/12/30 04:40:07;;;;;;;75.60;67.70;;;;;;;1.58;86.54;97635.44;104298;1322;22570;-59
2021/12/30 04:42:35;;;;;;;74.20;66.70;;;;;;;1.58;86.50;97639.15;104268;1334;22469;-59
2021/12/30 04:45:04;;;;;;;79.60;71.80;;;;;;;1.57;86.40;97638.89;104246;1334;22381;-59
2021/12/30 04:47:33;;;;;;;95.50;80.50;;;;;;;1.55;86.37;97647.94;104267;1323;23114;-59
2021/12/30 04:50:02;;;;;;;93.00;82.60;;;;;;;1.54;86.53;97658.70;104267;1334;23016;-59
2021/12/30 04:52:30;;;;;;;93.70;80.40;;;;;;;1.53;86.64;97660.92;104250;1334;22485;-59
2021/12/30 04:54:58;;;;;;;101.40;85.00;;;;;;;1.50;86.74;97660.98;104233;1334;22447;-59
2021/12/30 04:57:26;;;;;;;88.60;79.20;;;;;;;1.49;86.71;97658.80;104263;1334;22415;-59
2021/12/30 04:59:54;;;;;;;132.50;99.60;;;;;;;1.53;86.70;97662.46;104240;1326;22546;-59
2021/12/30 05:02:27;;;;;;;79.80;72.10;;;;;;;1.58;86.66;97668.45;104249;1334;22538;-60
2021/12/30 05:04:55;;;;;;;80.00;72.10;;;;;;;1.63;86.95;97664.13;104268;1334;22513;-59
2021/12/30 05:07:23;;;;;;;94.30;84.40;;;;;;;1.68;87.21;97660.90;104304;1335;22339;-59
2021/12/30 05:09:51;;;;;;;89.80;80.00;;;;;;;1.74;86.94;97663.63;104238;1325;22551;-59
2021/12/30 05:12:19;;;;;;;76.80;69.40;;;;;;;1.78;86.78;97663.23;104230;1335;23070;-59
2021/12/30 05:14:47;;;;;;;72.30;65.50;;;;;;;1.84;86.86;97650.88;104253;1334;22498;-59
2021/12/30 05:17:15;;;;;;;73.20;66.20;;;;;;;1.90;87.05;97646.63;104224;1333;22648;-58
2021/12/30 05:19:43;;;;;;;78.50;71.50;;;;;;;1.97;87.33;97644.28;104232;1322;22527;-58
2021/12/30 05:22:11;;;;;;;81.90;74.30;;;;;;;2.02;87.14;97641.04;104227;1335;23194;-59
2021/12/30 05:24:39;;;;;;;81.90;74.50;;;;;;;2.06;87.03;97632.48;104267;1322;23163;-60
2021/12/30 05:27:07;;;;;;;83.60;75.80;;;;;;;2.09;86.90;97636.33;104241;1334;22477;-59
2021/12/30 05:29:35;;;;;;;76.30;69.00;;;;;;;2.12;86.75;97635.52;104270;1320;22304;-59
2021/12/30 05:32:03;;;;;;;80.90;73.70;;;;;;;2.15;86.79;97640.92;104224;1334;22499;-58
2021/12/30 05:34:34;;;;;;;82.30;73.60;;;;;;;2.16;86.66;97651.34;104235;1334;23083;-59
2021/12/30 05:37:03;;;;;;;82.00;73.70;;;;;;;2.11;86.45;97659.73;104231;1334;22958;-59
2021/12/30 05:39:31;;;;;;;82.70;74.70;;;;;;;1.99;86.22;97665.88;104242;1335;22538;-59
2021/12/30 05:41:59;;;;;;;83.40;75.20;;;;;;;1.88;86.38;97669.22;104238;1335;22396;-58
2021/12/30 05:44:27;;;;;;;78.40;71.00;;;;;;;1.83;86.41;97674.25;104266;1334;22519;-58
2021/12/30 05:46:55;;;;;;;67.60;61.50;;;;;;;1.83;86.75;97668.35;104210;1334;22354;-58
2021/12/30 05:49:23;;;;;;;67.40;61.30;;;;;;;1.88;86.75;97665.34;104255;1334;23222;-57
2021/12/30 05:51:52;;;;;;;74.10;67.40;;;;;;;1.94;87.12;97657.11;104256;1335;23212;-58
2021/12/30 05:54:20;;;;;;;74.40;67.70;;;;;;;1.97;87.00;97649.81;104561;1319;22561;-59
2021/12/30 05:56:48;;;;;;;71.50;64.50;;;;;;;1.99;87.17;97651.59;104501;1330;23200;-58
2021/12/30 05:59:16;;;;;;;73.50;66.40;;;;;;;2.03;86.96;97658.86;104459;1331;22437;-59
2021/12/30 06:01:44;;;;;;;73.10;65.70;;;;;;;2.05;86.87;97667.05;104507;1331;23213;-59
2021/12/30 06:04:14;;;;;;;85.00;75.80;;;;;;;2.05;86.61;97669.46;104525;1331;22682;-60
2021/12/30 06:06:42;;;;;;;151.90;107.60;;;;;;;2.00;86.41;97682.15;104520;1331;22550;-61
2021/12/30 06:09:10;;;;;;;186.60;132.80;;;;;;;1.91;86.47;97690.39;104484;1319;22429;-61
2021/12/30 06:11:45;;;;;;;164.60;115.60;;;;;;;1.84;86.57;97690.67;104519;1331;22674;-59
2021/12/30 06:14:19;;;;;;;163.40;110.40;;;;;;;1.82;86.96;97695.54;104520;1324;22490;-59
2021/12/30 06:16:47;;;;;;;151.10;109.40;;;;;;;1.86;86.88;97695.49;104482;1331;22410;-59
2021/12/30 06:19:15;;;;;;;149.10;106.40;;;;;;;1.87;86.78;97696.03;104480;1331;22643;-59
2021/12/30 06:21:43;;;;;;;152.50;109.10;;;;;;;1.85;86.71;97697.55;104590;1319;23052;-60
2021/12/30 06:24:11;;;;;;;147.50;111.00;;;;;;;1.85;87.09;97702.13;104553;1319;22501;-58
2021/12/30 06:26:39;;;;;;;160.70;114.70;;;;;;;1.88;87.18;97707.73;104497;1329;23015;-59
2021/12/30 06:29:07;;;;;;;198.90;128.10;;;;;;;1.86;86.82;97722.16;104516;1330;22543;-61
2021/12/30 06:31:37;;;;;;;200.30;130.10;;;;;;;1.81;86.69;97725.03;104493;1330;23664;-59
2021/12/30 06:34:05;;;;;;;248.50;161.10;;;;;;;1.84;87.06;97721.93;104525;1331;22524;-59
2021/12/30 06:36:34;;;;;;;237.80;155.10;;;;;;;1.90;87.24;97721.73;104503;1322;22497;-60
2021/12/30 06:39:05;;;;;;;180.50;122.90;;;;;;;1.98;87.50;97724.38;104492;1326;23220;-64
2021/12/30 06:41:33;;;;;;;164.40;112.50;;;;;;;2.01;87.25;97725.27;104582;1319;22342;-60
2021/12/30 06:44:01;;;;;;;157.10;104.30;;;;;;;2.05;87.25;97729.73;104575;1319;22727;-58
2021/12/30 06:46:30;;;;;;;170.30;119.90;;;;;;;2.08;86.95;97732.80;104492;1331;22564;-58
2021/12/30 06:48:58;;;;;;;182.80;121.20;;;;;;;2.12;86.93;97735.17;104466;1328;22604;-60
2021/12/30 06:51:27;;;;;;;145.30;105.50;;;;;;;2.13;87.17;97730.98;104504;1319;22376;-60
2021/12/30 06:53:56;;;;;;;136.90;102.70;;;;;;;2.14;87.15;97729.11;104489;1331;23304;-58
2021/12/30 06:56:24;;;;;;;137.30;101.40;;;;;;;2.15;87.27;97726.52;104512;1331;22589;-59
2021/12/30 06:58:52;;;;;;;128.60;95.30;;;;;;;2.20;87.39;97734.27;104529;1319;22653;-59
2021/12/30 07:01:20;;;;;;;126.80;98.20;;;;;;;2.26;87.22;97730.72;104463;1330;22522;-58
2021/12/30 07:03:48;;;;;;;126.10;89.10;;;;;;;2.32;87.05;97730.73;104492;1331;22537;-59
2021/12/30 07:06:16;;;;;;;176.70;98.80;;;;;;;2.37;87.01;97722.48;104533;1329;23186;-59
2021/12/30 07:08:44;;;;;;;159.80;102.00;;;;;;;2.42;87.50;97722.70;104515;1320;22522;-59
2021/12/30 07:11:12;;;;;;;269.10;123.90;;;;;;;2.45;87.34;97723.63;104524;1330;22528;-60
2021/12/30 07:13:40;;;;;;;140.20;89.50;;;;;;;2.46;87.39;97722.20;104524;1331;22443;-60
2021/12/30 07:16:08;;;;;;;164.40;102.90;;;;;;;2.48;86.97;97721.17;104535;1319;22607;-59
2021/12/30 07:18:37;;;;;;;145.50;98.90;;;;;;;2.45;86.60;97720.98;104605;1320;22461;-60
2021/12/30 07:21:05;;;;;;;115.60;94.00;;;;;;;2.46;86.99;97720.34;104527;1319;22648;-59
2021/12/30 07:23:33;;;;;;;105.80;89.90;;;;;;;2.48;87.00;97719.48;104495;1330;22637;-59
2021/12/30 07:26:02;;;;;;;92.50;83.40;;;;;;;2.51;87.27;97720.35;104515;1331;22323;-59
2021/12/30 07:28:30;;;;;;;84.80;75.90;;;;;;;2.55;87.18;97723.63;104501;1331;23137;-57
2021/12/30 07:30:58;;;;;;;81.70;73.80;;;;;;;2.59;87.02;97724.94;104509;1331;22358;-58
2021/12/30 07:33:26;;;;;;;79.50;71.80;;;;;;;2.63;87.23;97730.79;104512;1330;22567;-57
2021/12/30 07:35:54;;;;;;;84.00;75.60;;;;;;;2.67;86.86;97739.45;104535;1319;22762;-58
2021/12/30 07:38:23;;;;;;;80.70;73.00;;;;;;;2.66;86.64;97748.37;104508;1331;22571;-57
2021/12/30 07:40:51;;;;;;;85.90;77.80;;;;;;;2.56;86.32;97750.83;104520;1330;23226;-58
2021/12/30 07:43:19;;;;;;;85.90;78.20;;;;;;;2.49;86.42;97749.81;104506;1330;23104;-58
2021/12/30 07:45:47;;;;;;;88.80;79.90;;;;;;;2.45;86.96;97750.08;104519;1331;22414;-57
2021/12/30 07:48:15;;;;;;;89.90;81.60;;;;;;;2.46;86.88;97749.44;104549;1319;22457;-58
2021/12/30 07:50:43;;;;;;;76.30;69.40;;;;;;;2.52;87.16;97754.24;104507;1330;22949;-58
2021/12/30 07:53:11;;;;;;;82.30;74.80;;;;;;;2.61;87.04;97753.23;104504;1326;22497;-58
2021/12/30 07:55:57;;;;;;;;;;;;;;;2.69;87.26;97758.14;104510;1330;22507;-59
2021/12/30 07:58:42;;;;;;;104.70;94.30;;;;;;;2.74;87.38;97754.88;104461;1330;23200;-59
2021/12/30 08:01:36;;;;;;;83.80;76.10;;;;;;;2.84;87.25;97753.86;104511;1330;22377;-59
2021/12/30 08:04:05;;;;;;;75.70;67.70;;;;;;;2.96;87.47;97758.70;104462;1330;22363;-58
2021/12/30 08:06:36;;;;;;;85.70;77.30;;;;;;;3.08;87.39;97761.20;104473;1319;23175;-58
2021/12/30 08:09:09;;;;;;;94.50;84.80;;;;;;;3.18;87.11;97755.98;104512;1322;22538;-59
2021/12/30 08:11:42;;;;;;;99.70;88.90;;;;;;;3.27;87.21;97755.46;104482;1330;22536;-58
2021/12/30 08:14:12;;;;;;;100.80;90.90;;;;;;;3.34;87.18;97760.14;104490;1327;22489;-58
2021/12/30 08:16:46;;;;;;;88.40;79.70;;;;;;;3.40;87.43;97761.09;104508;1330;22936;-58
2021/12/30 08:19:20;;;;;;;77.10;69.40;;;;;;;3.49;87.17;97755.61;104479;1329;22512;-58
2021/12/30 08:21:53;;;;;;;76.60;69.00;;;;;;;3.59;87.26;97749.98;104480;1331;23046;-57
2021/12/30 08:24:29;;;;;;;68.00;61.80;;;;;;;3.70;86.98;97753.67;104459;1331;22582;-57
2021/12/30 08:27:14;;;;;;;76.20;69.20;;;;;;;3.76;86.91;97753.13;104553;1319;22491;-58
2021/12/30 08:29:55;;;;;;;72.50;66.40;;;;;;;3.81;87.27;97750.53;104519;1331;22714;-57
2021/12/30 08:32:30;;;;;;;87.20;79.10;;;;;;;3.81;86.66;97756.49;104529;1319;22362;-59
2021/12/30 08:35:11;;;;;;;95.60;85.20;;;;;;;3.77;86.48;97767.98;104453;1330;22388;-58
2021/12/30 08:38:04;;;;;;;95.50;84.40;;;;;;;3.77;86.62;97767.84;104505;1331;22566;-61
2021/12/30 08:40:32;;;;;;;90.10;81.20;;;;;;;3.80;86.90;97767.15;104288;1332;22488;-58
2021/12/30 08:43:11;;;;;;;84.40;76.40;;;;;;;3.81;86.83;97769.41;104498;1331;22456;-59
2021/12/30 08:45:46;;;;;;;92.10;83.40;;;;;;;3.82;86.68;97767.59;104335;1332;22504;-58
2021/12/30 08:48:20;;;;;;;93.50;84.10;;;;;;;3.83;86.60;97766.32;104495;1329;23126;-57
2021/12/30 08:50:56;;;;;;;85.70;77.20;;;;;;;3.82;86.52;97765.52;104465;1331;23846;-58
2021/12/30 08:53:40;;;;;;;88.30;79.50;;;;;;;3.80;86.40;97769.77;104486;1330;22611;-59
2021/12/30 08:56:17;;;;;;;87.60;78.70;;;;;;;3.80;86.50;97768.98;104488;1331;22666;-58
2021/12/30 08:58:45;;;;;;;89.10;80.50;;;;;;;3.79;86.17;97770.45;104542;1320;22642;-58
2021/12/30 09:01:14;;;;;;;85.70;77.70;;;;;;;3.75;85.91;97775.23;104506;1331;22528;-58
2021/12/30 09:03:42;;;;;;;133.10;106.20;;;;;;;3.70;86.14;97775.77;104541;1321;23021;-57
2021/12/30 09:06:10;;;;;;;80.80;73.10;;;;;;;3.66;86.36;97782.84;104475;1331;22436;-59
2021/12/30 09:08:44;;;;;;;89.20;79.80;;;;;;;3.63;86.25;97789.06;104507;1331;22284;-59
2021/12/30 09:11:18;;;;;;;94.60;77.80;;;;;;;3.63;86.10;97792.80;104492;1331;22623;-58
2021/12/30 09:13:51;;;;;;;86.80;78.80;;;;;;;3.61;85.83;97791.83;104519;1331;22859;-58
2021/12/30 09:16:25;;;;;;;92.20;83.60;;;;;;;3.58;85.99;97794.63;104492;1319;23014;-60
2021/12/30 09:18:58;;;;;;;103.80;92.80;;;;;;;3.55;86.10;97796.95;104474;1330;22539;-58
2021/12/30 09:21:39;;;;;;;99.70;89.40;;;;;;;3.52;86.15;97796.98;104343;1330;22401;-59
2021/12/30 09:24:51;;;;;;;99.80;88.00;;;;;;;3.49;86.21;97798.55;104522;1331;22841;-57
2021/12/30 09:27:25;;;;;;;104.70;86.20;;;;;;;3.50;86.29;97796.77;104473;1331;22587;-57
2021/12/30 09:29:53;;;;;;;119.50;85.70;;;;;;;3.55;86.20;97795.35;104481;1330;22588;-57
2021/12/30 09:32:21;;;;;;;91.30;81.30;;;;;;;3.59;86.09;97794.52;104512;1329;23156;-58
2021/12/30 09:34:49;;;;;;;95.00;85.00;;;;;;;3.59;85.86;97797.52;104500;1331;22479;-58
2021/12/30 09:37:17;;;;;;;117.50;92.00;;;;;;;3.61;86.21;97787.60;104448;1319;137081;-57
2021/12/30 09:39:46;;;;;;;125.50;93.80;;;;;;;3.64;86.36;97785.88;104518;1319;22521;-59
2021/12/30 09:42:15;;;;;;;133.20;92.10;;;;;;;3.67;86.33;97781.09;104516;1330;22476;-59
2021/12/30 09:44:43;;;;;;;109.40;85.60;;;;;;;3.68;86.01;97770.75;104514;1330;22690;-61
2021/12/30 09:47:11;;;;;;;111.90;89.20;;;;;;;3.71;85.96;97770.41;104524;1330;23255;-59
2021/12/30 09:49:40;;;;;;;110.10;91.00;;;;;;;3.77;86.28;97768.73;104484;1319;22543;-59
2021/12/30 09:52:08;;;;;;;116.60;98.30;;;;;;;3.81;86.18;97769.52;104490;1330;22412;-59
2021/12/30 09:54:36;;;;;;;135.40;105.40;;;;;;;3.83;86.27;97769.58;104478;1331;22541;-60
2021/12/30 09:57:04;;;;;;;132.80;102.90;;;;;;;3.83;86.18;97764.73;104522;1330;23160;-59
2021/12/30 09:59:34;;;;;;;120.70;98.40;;;;;;;3.81;85.63;97762.20;104516;1330;22560;-59
2021/12/30 10:02:02;;;;;;;112.30;95.00;;;;;;;3.78;85.91;97768.38;104495;1330;22513;-59
2021/12/30 10:04:33;;;;;;;133.60;99.00;;;;;;;3.78;86.16;97768.85;104513;1331;23048;-58
2021/12/30 10:07:03;;;;;;;119.70;100.50;;;;;;;3.80;85.90;97766.04;104516;1331;22504;-58
2021/12/30 10:09:49;;;;;;;123.80;105.00;;;;;;;3.82;86.01;97771.39;104515;1329;22566;-60
2021/12/30 10:12:39;;;;;;;134.00;105.20;;;;;;;3.85;86.53;97768.25;104488;1330;22557;-58
2021/12/30 10:15:08;;;;;;;134.10;96.50;;;;;;;3.85;86.09;97774.77;104554;1319;22515;-59
2021/12/30 10:17:36;;;;;;;136.70;99.00;;;;;;;3.84;86.02;97777.20;104509;1319;22539;-59
2021/12/30 10:20:42;;;;;;;120.80;94.80;;;;;;;3.83;85.96;97784.83;104494;1329;22463;-58
2021/12/30 10:23:18;;;;;;;117.40;93.10;;;;;;;3.79;86.20;97787.03;104401;1330;138036;-60
2021/12/30 10:25:49;;;;;;;112.90;94.10;;;;;;;3.76;85.99;97787.49;104628;1319;22558;-59
2021/12/30 10:28:23;;;;;;;98.50;83.90;;;;;;;3.73;86.81;97785.45;104491;1331;22549;-58
2021/12/30 10:30:56;;;;;;;106.90;89.00;;;;;;;3.72;86.57;97786.99;104483;1331;22699;-57
2021/12/30 10:33:27;;;;;;;81.30;73.20;;;;;;;3.69;86.61;97776.67;104509;1320;22568;-58
2021/12/30 10:35:57;;;;;;;86.30;77.40;;;;;;;3.70;87.36;97776.91;104505;1331;22364;-60
2021/12/30 10:38:30;;;;;;;85.10;76.30;;;;;;;3.70;87.39;97769.70;104564;1318;22430;-59
2021/12/30 10:41:03;;;;;;;83.90;75.20;;;;;;;3.69;87.18;97774.45;104510;1331;22537;-58
2021/12/30 10:43:45;;;;;;;86.80;77.60;;;;;;;3.71;87.25;97773.08;104471;1331;22577;-59
2021/12/30 10:46:18;;;;;;;76.50;68.90;;;;;;;3.75;87.07;97776.83;104483;1331;22544;-59
2021/12/30 10:48:48;;;;;;;87.40;77.90;;;;;;;3.76;87.37;97774.27;104552;1330;22600;-59
2021/12/30 10:51:16;;;;;;;85.50;76.50;;;;;;;3.77;87.30;97773.39;104482;1319;137465;-59
2021/12/30 10:53:45;;;;;;;77.90;69.90;;;;;;;3.79;87.78;97775.73;104479;1319;23212;-60
2021/12/30 10:56:22;;;;;;;69.20;62.10;;;;;;;3.81;88.70;97779.69;104526;1331;22548;-59
2021/12/30 10:58:52;;;;;;;65.20;58.40;;;;;;;3.85;88.29;97788.25;104530;1319;23662;-59
2021/12/30 11:01:24;;;;;;;78.00;69.90;;;;;;;3.91;88.12;97794.67;104520;1319;22454;-59
2021/12/30 11:03:59;;;;;;;74.10;66.60;;;;;;;3.93;88.66;97791.70;104524;1319;22499;-59
2021/12/30 11:06:27;;;;;;;59.30;52.90;;;;;;;3.96;88.72;97793.75;104477;1330;22577;-57
2021/12/30 11:09:07;;;;;;;58.70;52.70;;;;;;;3.99;88.80;97792.90;104517;1319;22301;-58
2021/12/30 11:11:35;;;;;;;61.00;54.40;;;;;;;4.02;88.45;97783.33;104523;1330;22503;-57
2021/12/30 11:14:07;;;;;;;55.90;49.90;;;;;;;4.05;88.95;97782.19;104540;1313;22295;-58
2021/12/30 11:17:15;;;;;;;59.50;53.30;;;;;;;4.08;89.06;97783.15;104534;1331;23120;-58
2021/12/30 11:20:00;;;;;;;69.20;62.10;;;;;;;4.12;88.81;97790.04;104402;1331;22589;-61
2021/12/30 11:22:31;;;;;;;66.90;56.40;;;;;;;4.13;89.40;97786.74;104458;1319;137247;-58
2021/12/30 11:25:01;;;;;;;86.30;67.80;;;;;;;4.14;89.89;97789.19;104508;1330;23181;-59
2021/12/30 11:27:30;;;;;;;63.60;52.40;;;;;;;4.17;89.28;97788.52;104511;1331;23095;-58
2021/12/30 11:30:02;;;;;;;63.40;52.40;;;;;;;4.24;89.47;97797.56;104513;1329;22460;-58
2021/12/30 11:32:33;;;;;;;189.50;117.80;;;;;;;4.27;89.76;97791.71;104550;1319;22448;-58